createdAt,value
2022-11-21T00:00:26.795Z,29.45
2022-11-21T00:01:30.444Z,29.52
2022-11-21T00:02:33.964Z,31.23
2022-11-21T00:03:38.583Z,30.58
2022-11-21T00:04:41.681Z,28.35
2022-11-21T00:05:49.134Z,27.55
2022-11-21T00:06:52.801Z,30.35
2022-11-21T00:07:56.912Z,29.92
2022-11-21T00:08:59.933Z,30.00
2022-11-21T00:10:03.611Z,31.27
2022-11-21T00:11:06.696Z,29.45
2022-11-21T00:12:09.664Z,31.42
2022-11-21T00:13:16.193Z,30.55
2022-11-21T00:14:19.268Z,30.40
2022-11-21T00:15:23.379Z,32.50
2022-11-21T00:16:26.487Z,30.55
2022-11-21T00:17:29.481Z,30.52
2022-11-21T00:18:34.897Z,29.48
2022-11-21T00:19:37.960Z,29.63
2022-11-21T00:20:42.288Z,32.22
2022-11-21T00:21:45.242Z,31.02
2022-11-21T00:22:49.437Z,29.45
2022-11-21T00:23:53.442Z,29.20
2022-11-21T00:24:56.443Z,30.65
2022-11-21T00:25:59.539Z,28.73
2022-11-21T00:27:02.537Z,29.48
2022-11-21T00:28:06.244Z,29.73
2022-11-21T00:29:09.617Z,33.33
2022-11-21T00:30:13.102Z,31.40
2022-11-21T00:31:23.944Z,29.58
2022-11-21T00:32:27.384Z,30.23
2022-11-21T00:33:30.840Z,30.13
2022-11-21T00:34:33.886Z,29.10
2022-11-21T00:35:36.900Z,32.85
2022-11-21T00:36:39.897Z,31.00
2022-11-21T00:37:42.984Z,30.33
2022-11-21T00:38:46.441Z,28.73
2022-11-21T00:39:49.667Z,30.30
2022-11-21T00:40:52.706Z,30.35
2022-11-21T00:41:55.712Z,31.23
2022-11-21T00:42:58.989Z,29.48
2022-11-21T00:44:01.979Z,30.35
2022-11-21T00:45:05.709Z,29.40
2022-11-21T00:46:08.778Z,29.17
2022-11-21T00:47:12.390Z,30.42
2022-11-21T00:48:15.408Z,31.08
2022-11-21T00:49:18.464Z,30.83
2022-11-21T00:50:21.578Z,31.75
2022-11-21T00:51:24.660Z,33.08
2022-11-21T00:52:27.671Z,29.30
2022-11-21T00:53:30.766Z,30.88
2022-11-21T00:54:33.969Z,30.45
2022-11-21T00:55:37.399Z,29.67
2022-11-21T00:56:40.483Z,32.70
2022-11-21T00:57:43.490Z,30.92
2022-11-21T00:58:46.627Z,31.05
2022-11-21T00:59:49.665Z,29.65
2022-11-21T01:00:52.994Z,30.00
2022-11-21T01:01:56.152Z,31.80
2022-11-21T01:02:59.210Z,29.88
2022-11-21T01:04:02.681Z,30.15
2022-11-21T01:05:06.722Z,31.85
2022-11-21T01:06:15.871Z,30.80
2022-11-21T01:07:18.877Z,31.95
2022-11-21T01:08:22.038Z,28.77
2022-11-21T01:09:25.165Z,29.15
2022-11-21T01:10:28.255Z,29.60
2022-11-21T01:11:31.549Z,32.78
2022-11-21T01:12:34.921Z,31.50
2022-11-21T01:13:38.909Z,31.98
2022-11-21T01:14:42.045Z,33.50
2022-11-21T01:15:45.305Z,31.17
2022-11-21T01:16:48.308Z,33.97
2022-11-21T01:17:51.405Z,33.72
2022-11-21T01:18:55.050Z,31.85
2022-11-21T01:19:58.258Z,31.20
2022-11-21T01:21:04.340Z,30.42
2022-11-21T01:22:07.290Z,30.27
2022-11-21T01:23:10.249Z,31.10
2022-11-21T01:24:13.574Z,31.83
2022-11-21T01:25:16.789Z,31.27
2022-11-21T01:26:23.902Z,33.03
2022-11-21T01:27:27.052Z,33.75
2022-11-21T01:28:30.227Z,33.13
2022-11-21T01:29:33.221Z,31.10
2022-11-21T01:30:36.435Z,31.33
2022-11-21T01:31:39.438Z,33.40
2022-11-21T01:32:42.466Z,30.25
2022-11-21T01:33:46.567Z,32.55
2022-11-21T01:34:49.570Z,30.75
2022-11-21T01:35:52.612Z,31.02
2022-11-21T01:36:55.622Z,31.92
2022-11-21T01:37:58.950Z,30.98
2022-11-21T01:39:07.462Z,31.90
2022-11-21T01:40:14.267Z,32.25
2022-11-21T01:41:25.190Z,33.20
2022-11-21T01:42:28.282Z,32.35
2022-11-21T01:43:31.293Z,30.85
2022-11-21T01:44:53.657Z,30.25
2022-11-21T01:46:00.256Z,33.50
2022-11-21T01:47:03.339Z,33.22
2022-11-21T01:48:06.641Z,33.10
2022-11-21T01:49:24.814Z,31.40
2022-11-21T01:50:27.809Z,34.50
2022-11-21T01:51:52.019Z,34.05
2022-11-21T01:52:55.130Z,30.35
2022-11-21T01:54:28.406Z,31.33
2022-11-21T01:55:31.574Z,31.95
2022-11-21T01:56:46.727Z,33.47
2022-11-21T01:57:50.223Z,31.10
2022-11-21T01:58:56.904Z,32.60
2022-11-21T02:00:23.262Z,30.48
2022-11-21T02:01:27.638Z,30.73
2022-11-21T02:02:35.933Z,29.88
2022-11-21T02:03:41.513Z,30.50
2022-11-21T02:04:45.878Z,30.05
2022-11-21T02:05:48.943Z,31.15
2022-11-21T02:06:52.070Z,29.08
2022-11-21T02:08:02.489Z,31.02
2022-11-21T02:09:07.088Z,29.95
2022-11-21T02:10:11.310Z,29.58
2022-11-21T02:11:38.415Z,30.48
2022-11-21T02:12:51.632Z,30.45
2022-11-21T02:13:55.830Z,30.33
2022-11-21T02:14:59.871Z,30.00
2022-11-21T02:16:03.458Z,33.97
2022-11-21T02:17:09.575Z,29.92
2022-11-21T02:18:12.565Z,31.13
2022-11-21T02:19:44.927Z,32.88
2022-11-21T02:20:57.263Z,27.67
2022-11-21T02:22:12.904Z,27.88
2022-11-21T02:24:04.941Z,29.77
2022-11-21T02:25:15.237Z,28.48
2022-11-21T02:26:18.546Z,31.05
2022-11-21T02:27:21.981Z,28.92
2022-11-21T02:28:25.435Z,31.58
2022-11-21T02:29:28.660Z,31.35
2022-11-21T02:30:34.683Z,30.65
2022-11-21T02:31:37.716Z,31.52
2022-11-21T02:32:49.787Z,30.52
2022-11-21T02:33:52.884Z,28.67
2022-11-21T02:34:55.925Z,31.23
2022-11-21T02:36:01.022Z,30.92
2022-11-21T02:37:04.034Z,30.00
2022-11-21T02:38:22.678Z,30.60
2022-11-21T02:39:37.153Z,30.30
2022-11-21T02:41:07.319Z,31.42
2022-11-21T02:42:15.498Z,30.45
2022-11-21T02:43:29.607Z,31.08
2022-11-21T02:45:08.325Z,31.80
2022-11-21T02:46:11.326Z,28.55
2022-11-21T02:47:14.314Z,30.80
2022-11-21T02:48:17.286Z,32.25
2022-11-21T02:50:45.723Z,31.27
2022-11-21T02:51:48.741Z,32.10
2022-11-21T02:52:51.379Z,32.33
2022-11-21T02:53:53.996Z,32.22
2022-11-21T02:54:56.609Z,30.63
2022-11-21T02:55:59.359Z,33.25
2022-11-21T02:57:02.410Z,34.45
2022-11-21T02:58:05.939Z,35.63
2022-11-21T02:59:08.528Z,37.47
2022-11-21T03:00:11.922Z,32.58
2022-11-21T03:01:14.585Z,34.08
2022-11-21T03:02:17.311Z,34.25
2022-11-21T03:03:23.113Z,34.08
2022-11-21T03:04:26.889Z,32.10
2022-11-21T03:05:30.114Z,31.48
2022-11-21T03:06:32.765Z,33.15
2022-11-21T03:07:35.436Z,33.22
2022-11-21T03:08:38.188Z,35.85
2022-11-21T03:09:40.869Z,32.63
2022-11-21T03:10:43.488Z,35.00
2022-11-21T03:11:46.342Z,36.58
2022-11-21T03:12:48.982Z,31.02
2022-11-21T03:13:51.618Z,31.92
2022-11-21T03:14:54.224Z,31.15
2022-11-21T03:15:56.788Z,31.88
2022-11-21T03:16:59.454Z,32.03
2022-11-21T03:18:03.272Z,31.83
2022-11-21T03:19:06.009Z,32.97
2022-11-21T03:20:09.694Z,32.55
2022-11-21T03:21:12.409Z,33.35
2022-11-21T03:22:15.682Z,33.65
2022-11-21T03:23:18.337Z,33.22
2022-11-21T03:24:20.984Z,35.15
2022-11-21T03:25:23.760Z,33.13
2022-11-21T03:26:26.443Z,35.35
2022-11-21T03:27:29.113Z,36.47
2022-11-21T03:28:31.926Z,34.13
2022-11-21T03:29:34.626Z,34.80
2022-11-21T03:30:37.381Z,35.50
2022-11-21T03:31:39.983Z,36.67
2022-11-21T03:32:42.612Z,33.30
2022-11-21T03:33:45.213Z,32.75
2022-11-21T03:34:47.800Z,33.53
2022-11-21T03:35:50.449Z,32.50
2022-11-21T03:36:53.147Z,35.38
2022-11-21T03:37:55.775Z,33.40
2022-11-21T03:38:58.650Z,32.17
2022-11-21T03:40:01.291Z,30.42
2022-11-21T03:41:26.570Z,32.83
2022-11-21T03:42:29.196Z,32.28
2022-11-21T03:43:32.240Z,31.08
2022-11-21T03:44:34.881Z,29.42
2022-11-21T03:45:37.652Z,28.17
2022-11-21T03:46:43.547Z,31.42
2022-11-21T03:47:46.160Z,30.73
2022-11-21T03:48:48.868Z,30.45
2022-11-21T03:49:51.645Z,29.67
2022-11-21T03:50:54.324Z,29.63
2022-11-21T03:51:57.020Z,28.77
2022-11-21T03:52:59.634Z,31.27
2022-11-21T03:54:03.121Z,28.30
2022-11-21T03:55:06.121Z,30.73
2022-11-21T03:56:08.896Z,31.35
2022-11-21T03:57:11.494Z,31.90
2022-11-21T03:58:14.053Z,32.08
2022-11-21T03:59:16.714Z,31.13
2022-11-21T04:00:19.633Z,29.48
2022-11-21T04:01:22.628Z,33.80
2022-11-21T04:02:25.284Z,32.45
2022-11-21T04:03:28.005Z,34.42
2022-11-21T04:04:30.908Z,32.20
2022-11-21T04:05:33.651Z,32.88
2022-11-21T04:06:36.347Z,33.15
2022-11-21T04:07:39.040Z,30.70
2022-11-21T04:08:41.800Z,32.60
2022-11-21T04:09:44.412Z,34.42
2022-11-21T04:10:51.349Z,33.08
2022-11-21T04:11:53.938Z,33.25
2022-11-21T04:12:56.535Z,36.28
2022-11-21T04:13:59.245Z,33.47
2022-11-21T04:15:02.037Z,36.13
2022-11-21T04:16:05.133Z,37.28
2022-11-21T04:17:08.068Z,35.03
2022-11-21T04:18:11.181Z,31.27
2022-11-21T04:19:13.802Z,33.17
2022-11-21T04:20:16.763Z,31.58
2022-11-21T04:21:19.450Z,33.10
2022-11-21T04:22:22.002Z,33.88
2022-11-21T04:23:25.132Z,32.30
2022-11-21T04:24:28.110Z,35.83
2022-11-21T04:25:31.481Z,34.85
2022-11-21T04:26:34.269Z,35.70
2022-11-21T04:27:36.976Z,34.85
2022-11-21T04:28:39.725Z,35.83
2022-11-21T04:29:42.406Z,34.78
2022-11-21T04:30:45.091Z,35.75
2022-11-21T04:31:47.687Z,31.80
2022-11-21T04:32:53.715Z,32.67
2022-11-21T04:33:56.347Z,29.70
2022-11-21T04:34:59.250Z,31.60
2022-11-21T04:36:02.170Z,32.58
2022-11-21T04:37:08.896Z,33.33
2022-11-21T04:38:14.920Z,32.25
2022-11-21T04:39:17.667Z,33.50
2022-11-21T04:40:20.348Z,34.42
2022-11-21T04:41:22.924Z,33.10
2022-11-21T04:42:25.632Z,34.05
2022-11-21T04:43:28.317Z,34.33
2022-11-21T04:44:31.053Z,34.58
2022-11-21T04:45:33.768Z,34.33
2022-11-21T04:46:36.401Z,31.00
2022-11-21T04:47:39.801Z,35.45
2022-11-21T04:48:42.672Z,37.45
2022-11-21T04:49:45.273Z,35.53
2022-11-21T04:50:47.921Z,32.13
2022-11-21T04:51:50.530Z,34.40
2022-11-21T04:52:54.916Z,34.25
2022-11-21T04:53:57.530Z,32.60
2022-11-21T04:55:00.504Z,35.05
2022-11-21T04:56:06.401Z,33.90
2022-11-21T04:57:09.072Z,34.05
2022-11-21T04:58:11.805Z,33.08
2022-11-21T04:59:14.638Z,34.22
2022-11-21T05:00:23.838Z,36.22
2022-11-21T05:01:27.049Z,35.30
2022-11-21T05:02:29.752Z,31.20
2022-11-21T05:03:32.399Z,35.28
2022-11-21T05:04:35.034Z,36.13
2022-11-21T05:05:37.729Z,36.83
2022-11-21T05:06:40.502Z,33.92
2022-11-21T05:07:43.446Z,37.03
2022-11-21T05:08:51.619Z,35.63
2022-11-21T05:09:55.488Z,33.45
2022-11-21T05:11:16.851Z,30.42
2022-11-21T05:12:38.361Z,35.25
2022-11-21T05:13:41.078Z,35.63
2022-11-21T05:14:43.681Z,33.13
2022-11-21T05:15:46.472Z,35.90
2022-11-21T05:16:49.096Z,33.40
2022-11-21T05:17:51.910Z,35.47
2022-11-21T05:18:54.567Z,34.70
2022-11-21T05:19:57.209Z,38.17
2022-11-21T05:21:01.758Z,34.95
2022-11-21T05:22:04.426Z,35.17
2022-11-21T05:23:07.218Z,33.90
2022-11-21T05:24:09.851Z,36.10
2022-11-21T05:25:12.610Z,35.63
2022-11-21T05:26:15.240Z,35.25
2022-11-21T05:27:17.905Z,31.73
2022-11-21T05:28:20.520Z,34.03
2022-11-21T05:29:27.898Z,34.17
2022-11-21T05:30:31.091Z,34.13
2022-11-21T05:31:34.011Z,33.00
2022-11-21T05:32:36.784Z,32.58
2022-11-21T05:33:39.424Z,32.47
2022-11-21T05:34:42.083Z,34.63
2022-11-21T05:35:44.815Z,33.97
2022-11-21T05:36:47.470Z,32.40
2022-11-21T05:37:56.621Z,34.88
2022-11-21T05:38:59.530Z,35.08
2022-11-21T05:40:02.383Z,37.25
2022-11-21T05:41:05.261Z,35.08
2022-11-21T05:42:07.953Z,34.22
2022-11-21T05:43:44.298Z,33.90
2022-11-21T05:44:47.019Z,32.00
2022-11-21T05:45:50.348Z,38.13
2022-11-21T05:46:53.012Z,33.47
2022-11-21T05:47:55.701Z,34.47
2022-11-21T05:48:58.356Z,34.75
2022-11-21T05:50:01.056Z,32.90
2022-11-21T05:51:04.693Z,33.88
2022-11-21T05:52:07.300Z,34.88
2022-11-21T05:53:09.961Z,34.80
2022-11-21T05:54:14.750Z,33.35
2022-11-21T05:55:17.358Z,34.10
2022-11-21T05:56:20.262Z,35.85
2022-11-21T05:57:23.030Z,34.35
2022-11-21T05:58:25.684Z,35.30
2022-11-21T05:59:28.295Z,35.85
2022-11-21T06:00:31.301Z,37.05
2022-11-21T06:01:52.758Z,32.40
2022-11-21T06:03:14.115Z,31.63
2022-11-21T06:04:16.947Z,30.85
2022-11-21T06:05:19.593Z,33.10
2022-11-21T06:06:25.008Z,31.23
2022-11-21T06:07:27.796Z,29.17
2022-11-21T06:08:36.098Z,30.45
2022-11-21T06:09:38.815Z,31.08
2022-11-21T06:10:41.500Z,32.13
2022-11-21T06:11:44.150Z,35.20
2022-11-21T06:12:46.902Z,35.42
2022-11-21T06:13:49.543Z,33.83
2022-11-21T06:14:52.149Z,32.05
2022-11-21T06:16:02.126Z,33.97
2022-11-21T06:17:05.445Z,34.40
2022-11-21T06:18:08.055Z,33.83
2022-11-21T06:19:11.356Z,33.38
2022-11-21T06:20:14.383Z,33.75
2022-11-21T06:21:19.346Z,33.47
2022-11-21T06:22:21.981Z,33.35
2022-11-21T06:23:24.593Z,34.25
2022-11-21T06:24:27.594Z,34.67
2022-11-21T06:25:30.447Z,35.20
2022-11-21T06:26:33.093Z,34.85
2022-11-21T06:27:35.809Z,33.55
2022-11-21T06:28:40.061Z,34.42
2022-11-21T06:29:42.790Z,33.88
2022-11-21T06:30:46.314Z,32.72
2022-11-21T06:31:49.058Z,33.78
2022-11-21T06:32:52.093Z,31.27
2022-11-21T06:33:56.698Z,33.05
2022-11-21T06:34:59.315Z,33.83
2022-11-21T06:36:12.110Z,30.33
2022-11-21T06:37:14.790Z,32.10
2022-11-21T06:38:19.891Z,30.02
2022-11-21T06:39:22.545Z,32.28
2022-11-21T06:40:25.847Z,31.83
2022-11-21T06:41:30.925Z,33.80
2022-11-21T06:42:34.035Z,34.05
2022-11-21T06:43:36.625Z,31.15
2022-11-21T06:44:39.322Z,36.03
2022-11-21T06:45:41.966Z,33.65
2022-11-21T06:46:50.707Z,33.13
2022-11-21T06:47:53.831Z,32.15
2022-11-21T06:48:56.550Z,34.42
2022-11-21T06:49:59.157Z,36.78
2022-11-21T06:51:05.755Z,34.83
2022-11-21T06:52:08.518Z,36.63
2022-11-21T06:53:11.218Z,32.63
2022-11-21T06:54:16.889Z,35.25
2022-11-21T06:55:27.536Z,34.78
2022-11-21T06:56:33.402Z,34.55
2022-11-21T06:57:36.115Z,33.47
2022-11-21T06:58:38.867Z,35.17
2022-11-21T06:59:41.625Z,37.00
2022-11-21T07:00:44.634Z,34.05
2022-11-21T07:01:47.411Z,34.38
2022-11-21T07:02:50.027Z,36.38
2022-11-21T07:03:53.353Z,35.72
2022-11-21T07:04:56.140Z,36.03
2022-11-21T07:06:01.735Z,35.13
2022-11-21T07:07:04.444Z,31.75
2022-11-21T07:08:13.039Z,37.00
2022-11-21T07:09:32.752Z,33.58
2022-11-21T07:10:35.872Z,30.65
2022-11-21T07:11:38.616Z,31.75
2022-11-21T07:13:00.120Z,34.40
2022-11-21T07:14:07.751Z,32.25
2022-11-21T07:15:11.835Z,32.15
2022-11-21T07:16:14.916Z,36.72
2022-11-21T07:17:17.680Z,34.55
2022-11-21T07:18:21.603Z,33.38
2022-11-21T07:19:24.653Z,36.00
2022-11-21T07:20:27.465Z,34.28
2022-11-21T07:21:30.080Z,33.45
2022-11-21T07:22:32.788Z,37.88
2022-11-21T07:23:36.243Z,35.13
2022-11-21T07:24:39.034Z,32.45
2022-11-21T07:25:41.905Z,33.72
2022-11-21T07:26:44.600Z,33.50
2022-11-21T07:27:47.376Z,37.22
2022-11-21T07:28:49.998Z,36.95
2022-11-21T07:29:52.788Z,39.85
2022-11-21T07:30:59.941Z,31.33
2022-11-21T07:32:02.598Z,38.45
2022-11-21T07:33:06.816Z,36.53
2022-11-21T07:34:09.532Z,32.80
2022-11-21T07:35:12.127Z,35.33
2022-11-21T07:36:14.824Z,31.27
2022-11-21T07:37:17.424Z,36.08
2022-11-21T07:38:20.031Z,35.80
2022-11-21T07:39:22.764Z,37.10
2022-11-21T07:40:25.531Z,36.00
2022-11-21T07:41:28.439Z,36.42
2022-11-21T07:42:33.133Z,40.80
2022-11-21T07:43:35.808Z,38.88
2022-11-21T07:44:38.732Z,36.85
2022-11-21T07:45:41.377Z,41.25
2022-11-21T07:46:43.992Z,37.95
2022-11-21T07:47:47.004Z,39.63
2022-11-21T07:48:49.765Z,38.50
2022-11-21T07:49:52.540Z,37.95
2022-11-21T07:50:55.143Z,40.22
2022-11-21T07:51:58.920Z,37.72
2022-11-21T07:53:04.289Z,37.95
2022-11-21T07:54:07.037Z,40.55
2022-11-21T07:55:10.011Z,37.92
2022-11-21T07:56:12.719Z,36.95
2022-11-21T07:57:15.330Z,38.38
2022-11-21T07:58:18.155Z,37.65
2022-11-21T07:59:20.872Z,39.00
2022-11-21T08:00:23.870Z,36.90
2022-11-21T08:01:26.630Z,35.95
2022-11-21T08:02:29.540Z,38.88
2022-11-21T08:03:33.552Z,39.30
2022-11-21T08:04:36.723Z,34.65
2022-11-21T08:05:41.480Z,38.47
2022-11-21T08:06:44.110Z,38.22
2022-11-21T08:07:47.080Z,36.50
2022-11-21T08:08:53.935Z,36.17
2022-11-21T08:09:56.752Z,40.08
2022-11-21T08:10:59.430Z,37.92
2022-11-21T08:12:02.093Z,36.50
2022-11-21T08:13:04.826Z,36.70
2022-11-21T08:14:07.559Z,35.20
2022-11-21T08:15:10.944Z,38.58
2022-11-21T08:16:13.845Z,37.40
2022-11-21T08:17:18.506Z,38.63
2022-11-21T08:18:21.146Z,40.42
2022-11-21T08:19:23.969Z,39.05
2022-11-21T08:20:26.662Z,38.55
2022-11-21T08:21:29.369Z,37.42
2022-11-21T08:22:32.034Z,37.70
2022-11-21T08:23:34.739Z,36.85
2022-11-21T08:24:37.615Z,36.92
2022-11-21T08:25:41.493Z,38.83
2022-11-21T08:26:45.289Z,39.47
2022-11-21T08:27:48.029Z,39.05
2022-11-21T08:28:52.359Z,37.92
2022-11-21T08:29:58.232Z,37.88
2022-11-21T08:31:04.749Z,37.08
2022-11-21T08:32:07.406Z,39.25
2022-11-21T08:33:10.112Z,39.65
2022-11-21T08:34:14.766Z,39.05
2022-11-21T08:35:17.654Z,37.25
2022-11-21T08:36:20.270Z,38.58
2022-11-21T08:37:23.263Z,37.58
2022-11-21T08:38:25.866Z,38.25
2022-11-21T08:39:31.102Z,38.65
2022-11-21T08:40:34.385Z,39.00
2022-11-21T08:41:55.746Z,36.88
2022-11-21T08:43:05.747Z,35.97
2022-11-21T08:44:13.662Z,34.85
2022-11-21T08:45:16.930Z,37.47
2022-11-21T08:46:19.645Z,35.50
2022-11-21T08:47:22.405Z,34.75
2022-11-21T08:48:25.034Z,36.40
2022-11-21T08:49:28.438Z,34.63
2022-11-21T08:50:32.134Z,34.22
2022-11-21T08:51:35.878Z,34.55
2022-11-21T08:52:38.493Z,36.88
2022-11-21T08:53:41.200Z,35.35
2022-11-21T08:54:44.690Z,35.08
2022-11-21T08:55:47.292Z,35.50
2022-11-21T08:56:50.712Z,34.92
2022-11-21T08:57:53.390Z,34.00
2022-11-21T08:58:56.372Z,36.17
2022-11-21T08:59:58.963Z,33.65
2022-11-21T09:01:01.696Z,34.47
2022-11-21T09:02:04.464Z,36.10
2022-11-21T09:03:07.183Z,38.42
2022-11-21T09:04:10.548Z,36.03
2022-11-21T09:05:13.194Z,35.58
2022-11-21T09:06:15.900Z,33.72
2022-11-21T09:07:18.607Z,34.28
2022-11-21T09:08:21.268Z,34.22
2022-11-21T09:09:25.522Z,34.05
2022-11-21T09:10:29.458Z,31.85
2022-11-21T09:11:32.592Z,35.22
2022-11-21T09:12:35.265Z,33.35
2022-11-21T09:13:38.015Z,34.13
2022-11-21T09:14:59.086Z,35.45
2022-11-21T09:16:21.441Z,32.63
2022-11-21T09:17:42.759Z,33.90
2022-11-21T09:18:45.592Z,33.33
2022-11-21T09:19:49.674Z,33.15
2022-11-21T09:20:52.290Z,37.58
2022-11-21T09:21:54.985Z,34.00
2022-11-21T09:22:57.654Z,34.55
2022-11-21T09:24:00.358Z,32.50
2022-11-21T09:25:03.061Z,33.65
2022-11-21T09:26:05.766Z,31.42
2022-11-21T09:27:08.467Z,34.08
2022-11-21T09:28:12.800Z,34.97
2022-11-21T09:29:16.367Z,33.42
2022-11-21T09:30:19.239Z,34.13
2022-11-21T09:31:21.904Z,34.17
2022-11-21T09:32:24.607Z,31.83
2022-11-21T09:33:27.407Z,33.00
2022-11-21T09:34:31.698Z,32.13
2022-11-21T09:35:34.784Z,29.90
2022-11-21T09:36:37.710Z,32.50
2022-11-21T09:37:40.604Z,31.67
2022-11-21T09:38:45.386Z,32.42
2022-11-21T09:39:49.050Z,32.45
2022-11-21T09:40:51.749Z,32.17
2022-11-21T09:42:15.492Z,31.95
2022-11-21T09:43:38.388Z,31.42
2022-11-21T09:44:54.906Z,29.75
2022-11-21T09:46:10.822Z,32.42
2022-11-21T09:47:39.521Z,29.77
2022-11-21T09:48:56.137Z,27.80
2022-11-21T09:50:05.668Z,27.88
2022-11-21T09:51:12.320Z,26.63
2022-11-21T09:52:16.133Z,30.17
2022-11-21T09:53:25.778Z,28.15
2022-11-21T09:54:32.188Z,30.42
2022-11-21T09:55:34.832Z,27.92
2022-11-21T09:56:41.421Z,29.10
2022-11-21T09:57:45.097Z,29.92
2022-11-21T09:59:25.808Z,27.80
2022-11-21T10:00:28.464Z,26.70
2022-11-21T10:01:32.038Z,27.58
2022-11-21T10:02:34.725Z,29.33
2022-11-21T10:03:52.411Z,26.52
2022-11-21T10:05:00.615Z,26.40
2022-11-21T10:06:29.746Z,28.67
2022-11-21T10:07:33.114Z,26.95
2022-11-21T10:08:59.869Z,28.20
2022-11-21T10:10:14.198Z,28.23
2022-11-21T10:12:21.916Z,28.73
2022-11-21T10:13:59.790Z,27.30
2022-11-21T10:15:06.600Z,30.77
2022-11-21T10:16:10.435Z,31.90
2022-11-21T10:17:39.142Z,30.83
2022-11-21T10:18:57.124Z,33.28
2022-11-21T10:20:32.503Z,32.10
2022-11-21T10:22:07.454Z,33.08
2022-11-21T10:23:35.240Z,31.15
2022-11-21T10:24:45.153Z,32.55
2022-11-21T10:26:17.186Z,33.90
2022-11-21T10:27:27.253Z,32.13
2022-11-21T10:28:37.087Z,33.88
2022-11-21T10:30:14.696Z,33.85
2022-11-21T10:31:18.019Z,31.60
2022-11-21T10:32:35.278Z,32.40
2022-11-21T10:33:40.550Z,31.80
2022-11-21T10:34:43.667Z,32.10
2022-11-21T10:35:52.366Z,31.65
2022-11-21T10:36:58.368Z,32.38
2022-11-21T10:38:02.928Z,32.13
2022-11-21T10:39:36.202Z,32.78
2022-11-21T10:40:44.656Z,30.20
2022-11-21T10:42:01.575Z,30.75
2022-11-21T10:43:55.036Z,32.88
2022-11-21T10:45:19.127Z,30.63
2022-11-21T10:46:21.989Z,28.52
2022-11-21T10:47:34.154Z,30.60
2022-11-21T10:48:36.988Z,30.17
2022-11-21T10:49:40.016Z,27.52
2022-11-21T10:50:54.520Z,29.50
2022-11-21T10:52:14.211Z,26.48
2022-11-21T10:53:38.667Z,25.38
2022-11-21T10:55:05.413Z,25.52
2022-11-21T10:56:17.532Z,25.80
2022-11-21T10:57:20.659Z,28.67
2022-11-21T10:58:53.981Z,30.48
2022-11-21T11:00:15.066Z,27.85
2022-11-21T11:01:34.792Z,28.48
2022-11-21T11:02:37.723Z,29.00
2022-11-21T11:03:40.356Z,26.70
2022-11-21T11:04:49.042Z,27.00
2022-11-21T11:05:58.196Z,28.45
2022-11-21T11:07:29.073Z,26.25
2022-11-21T11:08:50.721Z,26.80
2022-11-21T11:10:14.041Z,25.02
2022-11-21T11:11:21.579Z,24.15
2022-11-21T11:12:49.170Z,24.40
2022-11-21T11:13:58.953Z,25.20
2022-11-21T11:15:01.576Z,26.08
2022-11-21T11:16:04.588Z,24.33
2022-11-21T11:17:14.235Z,23.83
2022-11-21T11:18:21.419Z,24.92
2022-11-21T11:19:35.460Z,26.38
2022-11-21T11:20:45.260Z,25.35
2022-11-21T11:21:49.548Z,24.00
2022-11-21T11:22:52.589Z,24.85
2022-11-21T11:24:11.763Z,22.35
2022-11-21T11:25:14.679Z,24.80
2022-11-21T11:26:24.559Z,24.88
2022-11-21T11:27:28.678Z,24.63
2022-11-21T11:28:36.595Z,24.90
2022-11-21T11:29:50.669Z,24.35
2022-11-21T11:30:56.237Z,25.15
2022-11-21T11:32:21.576Z,26.80
2022-11-21T11:33:33.138Z,25.20
2022-11-21T11:34:35.754Z,24.95
2022-11-21T11:35:40.007Z,24.65
2022-11-21T11:36:53.973Z,25.95
2022-11-21T11:38:03.680Z,24.73
2022-11-21T11:39:30.849Z,27.27
2022-11-21T11:40:37.832Z,25.55
2022-11-21T11:42:38.038Z,23.85
2022-11-21T11:44:11.149Z,24.13
2022-11-21T11:45:32.469Z,22.30
2022-11-21T11:47:32.604Z,22.42
2022-11-21T11:49:03.231Z,23.33
2022-11-21T11:50:42.018Z,23.83
2022-11-21T11:51:51.799Z,24.02
2022-11-21T11:53:06.131Z,23.52
2022-11-21T11:54:18.676Z,22.85
2022-11-21T11:55:30.952Z,23.42
2022-11-21T11:56:37.988Z,22.52
2022-11-21T11:57:41.477Z,20.77
2022-11-21T11:58:46.617Z,22.10
2022-11-21T11:59:55.664Z,22.08
2022-11-21T12:01:06.482Z,22.27
2022-11-21T12:03:19.627Z,18.80
2022-11-21T12:04:26.229Z,21.90
2022-11-21T12:05:30.558Z,20.40
2022-11-21T12:07:10.665Z,20.52
2022-11-21T12:08:40.079Z,19.58
2022-11-21T12:09:33.233Z,20.20
2022-11-21T12:11:12.783Z,22.17
2022-11-21T12:12:32.848Z,24.35
2022-11-21T12:13:36.585Z,23.75
2022-11-21T12:15:11.781Z,23.48
2022-11-21T12:16:14.813Z,22.70
2022-11-21T12:17:22.019Z,22.52
2022-11-21T12:18:33.097Z,23.77
2022-11-21T12:19:36.707Z,24.15
2022-11-21T12:20:57.263Z,22.80
2022-11-21T12:22:00.085Z,23.08
2022-11-21T12:23:04.582Z,23.00
2022-11-21T12:24:10.131Z,23.05
2022-11-21T12:25:13.764Z,22.85
2022-11-21T12:26:37.770Z,22.35
2022-11-21T12:27:42.111Z,21.52
2022-11-21T12:28:53.756Z,20.90
2022-11-21T12:30:14.983Z,21.52
2022-11-21T12:32:05.651Z,22.95
2022-11-21T12:33:26.369Z,21.75
2022-11-21T12:35:02.523Z,19.83
2022-11-21T12:36:17.966Z,20.15
2022-11-21T12:37:27.625Z,21.92
2022-11-21T12:38:49.094Z,22.27
2022-11-21T12:40:10.137Z,23.30
2022-11-21T12:41:40.748Z,22.65
2022-11-21T12:43:20.608Z,20.45
2022-11-21T12:44:48.046Z,20.20
2022-11-21T12:45:57.851Z,22.23
2022-11-21T12:47:26.319Z,19.70
2022-11-21T12:49:09.430Z,21.60
2022-11-21T12:50:41.326Z,20.85
2022-11-21T12:52:26.962Z,22.10
2022-11-21T12:54:05.583Z,21.48
2022-11-21T12:55:24.776Z,20.95
2022-11-21T12:56:52.329Z,23.08
2022-11-21T12:58:16.422Z,21.23
2022-11-21T12:59:20.085Z,22.98
2022-11-21T13:00:48.533Z,22.33
2022-11-21T13:01:55.351Z,23.95
2022-11-21T13:03:00.869Z,22.60
2022-11-21T13:04:10.024Z,24.42
2022-11-21T13:05:18.366Z,23.00
2022-11-21T13:06:25.222Z,23.77
2022-11-21T13:07:32.333Z,24.40
2022-11-21T13:08:38.734Z,24.50
2022-11-21T13:09:45.789Z,25.35
2022-11-21T13:11:39.119Z,24.65
2022-11-21T13:12:57.610Z,22.50
2022-11-21T13:14:11.666Z,24.63
2022-11-21T13:15:22.231Z,24.52
2022-11-21T13:16:37.132Z,24.90
2022-11-21T13:17:56.353Z,25.95
2022-11-21T13:18:59.093Z,22.85
2022-11-21T13:20:18.704Z,23.83
2022-11-21T13:21:44.420Z,24.10
2022-11-21T13:22:47.199Z,23.77
2022-11-21T13:23:50.015Z,24.60
2022-11-21T13:24:56.436Z,24.00
2022-11-21T13:25:59.160Z,24.35
2022-11-21T13:27:01.828Z,24.77
2022-11-21T13:28:19.428Z,24.95
2022-11-21T13:29:22.101Z,23.08
2022-11-21T13:30:25.064Z,25.35
2022-11-21T13:31:32.326Z,26.45
2022-11-21T13:32:42.131Z,25.27
2022-11-21T13:33:48.554Z,19.40
2022-11-21T13:34:51.116Z,24.48
2022-11-21T13:35:53.807Z,22.65
2022-11-21T13:36:56.624Z,22.52
2022-11-21T13:38:10.241Z,22.33
2022-11-21T13:39:15.613Z,22.25
2022-11-21T13:40:27.522Z,23.65
2022-11-21T13:41:54.883Z,26.90
2022-11-21T13:43:32.091Z,23.60
2022-11-21T13:44:32.599Z,24.38
2022-11-21T13:45:43.865Z,22.75
2022-11-21T13:47:03.697Z,23.05
2022-11-21T13:48:34.752Z,23.38
2022-11-21T13:50:51.832Z,23.30
2022-11-21T13:51:55.394Z,22.85
2022-11-21T13:53:04.586Z,22.08
2022-11-21T13:54:17.145Z,22.50
2022-11-21T13:55:51.680Z,22.30
2022-11-21T13:57:03.449Z,22.35
2022-11-21T13:58:15.256Z,22.83
2022-11-21T13:59:17.808Z,22.65
2022-11-21T14:00:31.365Z,21.10
2022-11-21T14:01:53.138Z,18.88
2022-11-21T14:03:28.206Z,21.27
2022-11-21T14:04:55.278Z,19.45
2022-11-21T14:05:58.082Z,20.13
2022-11-21T14:07:35.605Z,19.27
2022-11-21T14:08:38.582Z,20.95
2022-11-21T14:09:51.448Z,20.70
2022-11-21T14:10:56.145Z,20.95
2022-11-21T14:12:02.207Z,20.92
2022-11-21T14:13:05.127Z,21.17
2022-11-21T14:14:09.312Z,20.50
2022-11-21T14:15:31.997Z,21.23
2022-11-21T14:16:43.271Z,22.08
2022-11-21T14:17:55.074Z,23.85
2022-11-21T14:18:58.151Z,20.13
2022-11-21T14:20:15.288Z,22.17
2022-11-21T14:21:26.808Z,20.80
2022-11-21T14:22:42.408Z,20.15
2022-11-21T14:23:48.125Z,20.60
2022-11-21T14:24:52.422Z,21.20
2022-11-21T14:25:55.954Z,20.55
2022-11-21T14:26:58.899Z,20.60
2022-11-21T14:28:02.387Z,21.73
2022-11-21T14:29:23.999Z,19.90
2022-11-21T14:30:38.395Z,20.40
2022-11-21T14:31:48.207Z,21.08
2022-11-21T14:32:54.395Z,20.88
2022-11-21T14:33:58.543Z,19.65
2022-11-21T14:35:09.399Z,20.42
2022-11-21T14:36:19.758Z,21.10